Ashland, WI

9:28 PM CST on November 20, 2018 (GMT -0600)
llisa | | Change Station

Elev 643 ft 46.59 °N, 90.88 °W | Updated 7 seconds ago

Overcast
Overcast
22.8 °F
Feels Like 18 °F
N
3.8
Wind Variable Wind from WSW
Gusts 7.4 mph

Today
High -- | Low -- °F
--% Chance of Precip.
Yesterday
High -- | Low -- °F
Precip. -- in
Pressure 30.11 in
Visibility 4.0 miles
Clouds Mostly Cloudy 1800 ft
Overcast 2300 ft
Windchill 18 °F
Dew Point 20 °F
Humidity 89%
Rainfall 0.00 in
Snow Depth Not available.
7:12 AM 4:25 PM
Waxing Gibbous, 95% visible
METAR KASX 210253Z AUTO 32004KT 4SM BR BKN018 OVC023 M06/M08 A3006 RMK AO2 SLP195 T10611078 53023
Pressure 30.11 in
Visibility 4.0 miles
Clouds Mostly Cloudy 1800 ft
Overcast 2300 ft
Windchill 18 °F
Dew Point 20 °F
Humidity 89%
Rainfall 0.00 in
Snow Depth Not available.
7:12 AM 4:25 PM
Waxing Gibbous, 95% visible
METAR KASX 210253Z AUTO 32004KT 4SM BR BKN018 OVC023 M06/M08 A3006 RMK AO2 SLP195 T10611078 53023

Get Severe Weather Alerts

Thanks for signing up!

Be on the lookout for a verification email in your inbox.

You'll start receiving the daily forecast at 6 AM.

×

10-Day Weather Forecast

Almanac

Astronomy

Nov. 20, 2018 Rise Set
Actual Time
Civil Twilight
Nautical Twilight
Astronomical Twilight
Moon
Length of Visible Light
Length of Day
Tomorrow will be .
, % of the Moon is Illuminated

Today's Extremes

State Highs State Lows

Community

WunderPhotos

Category 6

Welcome to Category 6. This is the collective home for Weather Underground's featured writeups by Dr. Jeff Masters (right), Bob Henson (left), Chris Burt, and other regular contributors.

Nearby

Air Quality

  Air Quality AQ Index Pollutant
Not available.

Snow Depth

Station Depth Elevation

Earthquake Activity

City Distance Mag. Time & Date
Minimum magnitude displayed is 2.5.

Coastal Water Temperatures

Place Temperature

Stations

Nearby Weather Stations

Station Location Temp. Windchill Dew Point Humidity Wind Precip. Elev Updated Type
                   

Watches & Warnings

There are currently no watches in effect.